createdAt,value
2018-06-17T00:00:54.094Z,56.80
2018-06-17T00:03:22.291Z,55.90
2018-06-17T00:05:50.497Z,56.20
2018-06-17T00:08:19.263Z,56.10
2018-06-17T00:10:48.607Z,56.10
2018-06-17T00:13:16.809Z,56.00
2018-06-17T00:15:45.930Z,56.30
2018-06-17T00:18:14.501Z,56.60
2018-06-17T00:20:43.161Z,57.30
2018-06-17T00:23:11.349Z,57.90
2018-06-17T00:25:39.573Z,58.40
2018-06-17T00:28:07.837Z,58.80
2018-06-17T00:30:36.049Z,59.10
2018-06-17T00:33:04.267Z,59.50
2018-06-17T00:35:32.481Z,59.70
2018-06-17T00:38:00.683Z,60.20
2018-06-17T00:40:28.902Z,60.60
2018-06-17T00:42:57.153Z,61.10
2018-06-17T00:45:25.385Z,61.30
2018-06-17T00:47:53.607Z,61.50
2018-06-17T00:50:21.837Z,61.70
2018-06-17T00:52:50.097Z,62.10
2018-06-17T00:55:18.300Z,61.90
2018-06-17T00:57:48.961Z,61.60
2018-06-17T01:00:17.448Z,61.60
2018-06-17T01:02:46.034Z,61.80
2018-06-17T01:05:14.501Z,62.00
2018-06-17T01:07:42.869Z,61.60
2018-06-17T01:10:11.077Z,61.20
2018-06-17T01:12:39.585Z,61.50
2018-06-17T01:15:07.945Z,62.00
2018-06-17T01:17:36.419Z,62.70
2018-06-17T01:20:05.132Z,63.30
2018-06-17T01:22:33.345Z,64.00
2018-06-17T01:25:01.542Z,64.30
2018-06-17T01:27:29.731Z,64.70
2018-06-17T01:29:57.969Z,64.70
2018-06-17T01:32:26.149Z,64.60
2018-06-17T01:34:54.352Z,64.50
2018-06-17T01:37:22.550Z,64.20
2018-06-17T01:39:50.781Z,64.50
2018-06-17T01:42:18.966Z,64.20
2018-06-17T01:44:47.165Z,63.70
2018-06-17T01:47:17.423Z,63.40
2018-06-17T01:49:45.966Z,62.90
2018-06-17T01:52:14.177Z,63.50
2018-06-17T01:54:42.399Z,62.90
2018-06-17T01:57:10.621Z,62.80
2018-06-17T01:59:38.867Z,62.50
2018-06-17T02:02:07.142Z,62.30
2018-06-17T02:04:40.781Z,62.20
2018-06-17T02:07:14.390Z,61.90
2018-06-17T02:09:47.968Z,61.60
2018-06-17T02:12:16.165Z,61.20
2018-06-17T02:14:49.818Z,60.70
2018-06-17T02:17:18.615Z,60.80
2018-06-17T02:19:46.968Z,60.90
2018-06-17T02:22:15.205Z,60.90
2018-06-17T02:24:43.401Z,60.70
2018-06-17T02:27:11.613Z,60.00
2018-06-17T02:29:39.835Z,59.90
2018-06-17T02:32:08.337Z,60.00
2018-06-17T02:34:36.897Z,60.00
2018-06-17T02:37:05.350Z,60.20
2018-06-17T02:39:33.558Z,60.40
2018-06-17T02:42:01.766Z,60.40
2018-06-17T02:44:29.960Z,60.60
2018-06-17T02:47:03.329Z,60.50
2018-06-17T02:49:34.070Z,60.20
2018-06-17T02:52:07.801Z,60.00
2018-06-17T02:54:48.159Z,59.70
2018-06-17T02:57:18.709Z,59.50
2018-06-17T02:59:47.171Z,59.30
2018-06-17T03:02:15.757Z,58.90
2018-06-17T03:04:43.948Z,58.90
2018-06-17T03:07:12.204Z,58.50
2018-06-17T03:09:40.387Z,58.60
2018-06-17T03:12:08.658Z,58.40
2018-06-17T03:14:36.841Z,59.00
2018-06-17T03:17:05.069Z,58.80
2018-06-17T03:19:33.268Z,58.90
2018-06-17T03:22:01.480Z,58.80
2018-06-17T03:24:35.055Z,58.60
2018-06-17T03:27:08.689Z,58.70
2018-06-17T03:29:42.297Z,58.70
2018-06-17T03:32:15.885Z,58.70
2018-06-17T03:34:44.073Z,58.90
2018-06-17T03:37:12.331Z,59.40
2018-06-17T03:39:40.566Z,59.40
2018-06-17T03:42:08.786Z,59.40
2018-06-17T03:44:36.990Z,59.20
2018-06-17T03:47:05.209Z,60.30
2018-06-17T03:49:33.411Z,60.00
2018-06-17T03:52:08.246Z,60.00
2018-06-17T03:54:36.460Z,60.10
2018-06-17T03:59:32.609Z,59.70
2018-06-17T04:02:00.875Z,59.50
2018-06-17T04:04:29.823Z,59.60
2018-06-17T04:06:58.025Z,59.50
2018-06-17T04:09:26.253Z,59.50
2018-06-17T04:11:54.442Z,59.80
2018-06-17T04:14:22.653Z,60.10
2018-06-17T04:16:50.844Z,60.10
2018-06-17T04:19:19.049Z,60.10
2018-06-17T04:21:47.244Z,60.70
2018-06-17T04:24:15.470Z,61.10
2018-06-17T04:26:43.681Z,61.10
2018-06-17T04:29:11.898Z,60.60
2018-06-17T04:31:40.104Z,60.60
2018-06-17T04:34:09.133Z,60.50
2018-06-17T04:36:37.353Z,60.40
2018-06-17T04:39:07.666Z,60.10
2018-06-17T04:41:35.922Z,60.20
2018-06-17T04:44:04.129Z,60.30
2018-06-17T04:46:32.341Z,59.70
2018-06-17T04:49:00.532Z,59.30
2018-06-17T04:51:28.734Z,59.70
2018-06-17T04:53:56.929Z,59.30
2018-06-17T04:56:25.149Z,58.70
2018-06-17T04:58:53.676Z,58.50
2018-06-17T05:01:21.825Z,57.90
2018-06-17T05:03:50.040Z,57.50
2018-06-17T05:06:18.201Z,57.50
2018-06-17T05:08:46.369Z,57.70
2018-06-17T05:11:14.557Z,57.30
2018-06-17T05:13:42.724Z,56.70
2018-06-17T05:16:10.880Z,56.80
2018-06-17T05:18:39.037Z,56.10
2018-06-17T05:21:07.230Z,56.00
2018-06-17T05:23:35.395Z,55.20
2018-06-17T05:26:03.573Z,54.40
2018-06-17T05:28:31.752Z,53.50
2018-06-17T05:31:00.002Z,52.00
2018-06-17T05:33:28.157Z,50.40
2018-06-17T05:35:56.335Z,49.00
2018-06-17T05:38:24.486Z,49.40
2018-06-17T05:40:52.638Z,49.60
2018-06-17T05:43:20.773Z,49.10
2018-06-17T05:45:48.926Z,49.30
2018-06-17T05:48:17.081Z,49.40
2018-06-17T05:50:51.762Z,48.80
2018-06-17T05:53:19.926Z,49.60
2018-06-17T05:58:22.661Z,47.40
2018-06-17T06:00:50.817Z,46.80
2018-06-17T06:03:19.002Z,46.80
2018-06-17T06:05:47.166Z,46.60
2018-06-17T06:08:15.351Z,47.00
2018-06-17T06:10:43.514Z,47.50
2018-06-17T06:13:11.666Z,47.30
2018-06-17T06:15:39.946Z,47.50
2018-06-17T06:18:08.148Z,47.80
2018-06-17T06:20:36.326Z,48.50
2018-06-17T06:23:04.505Z,48.30
2018-06-17T06:25:32.671Z,48.10
2018-06-17T06:28:00.841Z,47.60
2018-06-17T06:30:29.029Z,47.40
2018-06-17T06:32:57.253Z,46.50
2018-06-17T06:35:25.403Z,46.00
2018-06-17T06:37:53.719Z,45.30
2018-06-17T06:40:21.933Z,45.30
2018-06-17T06:42:50.138Z,44.10
2018-06-17T06:45:18.314Z,42.00
2018-06-17T06:47:46.518Z,41.10
2018-06-17T06:50:14.670Z,39.30
2018-06-17T06:52:42.870Z,38.50
2018-06-17T06:55:11.099Z,37.30
2018-06-17T06:57:39.298Z,37.40
2018-06-17T07:00:07.535Z,37.20
2018-06-17T07:02:47.308Z,37.10
2018-06-17T07:05:26.877Z,37.70
2018-06-17T07:08:06.574Z,38.70
2018-06-17T07:10:34.803Z,38.50
2018-06-17T07:13:02.981Z,39.30
2018-06-17T07:15:42.372Z,39.70
2018-06-17T07:18:41.682Z,39.30
2018-06-17T07:21:10.249Z,39.50
2018-06-17T07:23:38.443Z,38.70
2018-06-17T07:26:43.749Z,39.00
2018-06-17T07:29:24.625Z,38.90
2018-06-17T07:31:52.847Z,39.50
2018-06-17T07:34:21.044Z,39.30
2018-06-17T07:36:49.210Z,38.90
2018-06-17T07:40:58.386Z,38.80
2018-06-17T07:43:26.559Z,38.80
2018-06-17T07:45:54.713Z,39.30
2018-06-17T07:49:44.049Z,39.60
2018-06-17T07:52:24.613Z,40.20
2018-06-17T07:54:52.797Z,41.80
2018-06-17T07:57:22.254Z,42.20
2018-06-17T07:59:50.413Z,43.20
2018-06-17T08:02:18.884Z,44.30
2018-06-17T08:04:47.109Z,44.70
2018-06-17T08:07:15.273Z,45.10
2018-06-17T08:09:43.441Z,45.80
2018-06-17T08:12:12.254Z,46.30
2018-06-17T08:14:40.510Z,47.80
2018-06-17T08:17:08.722Z,49.10
2018-06-17T08:19:36.973Z,50.80
2018-06-17T08:22:05.213Z,51.60
2018-06-17T08:24:33.858Z,50.70
2018-06-17T08:27:01.989Z,51.90
2018-06-17T08:29:30.154Z,51.90
2018-06-17T08:31:58.305Z,53.40
2018-06-17T08:34:26.549Z,55.20
2018-06-17T08:36:54.709Z,54.80
2018-06-17T08:39:23.845Z,55.50
2018-06-17T08:41:51.995Z,55.70
2018-06-17T08:44:20.568Z,55.40
2018-06-17T08:46:49.368Z,56.00
2018-06-17T08:49:18.017Z,56.00
2018-06-17T08:51:46.149Z,56.30
2018-06-17T08:54:14.415Z,55.90
2018-06-17T08:56:42.591Z,56.30
2018-06-17T08:59:10.770Z,56.10
2018-06-17T09:01:38.973Z,55.40
2018-06-17T09:04:07.309Z,55.20
2018-06-17T09:06:35.570Z,54.80
2018-06-17T09:09:06.002Z,54.80
2018-06-17T09:11:34.197Z,54.60
2018-06-17T09:14:02.505Z,54.30
2018-06-17T09:16:30.701Z,54.70
2018-06-17T09:18:58.917Z,53.70
2018-06-17T09:21:27.171Z,53.40
2018-06-17T09:23:55.308Z,52.70
2018-06-17T09:26:23.524Z,51.70
2018-06-17T09:28:52.184Z,51.50
2018-06-17T09:31:20.463Z,51.30
2018-06-17T09:33:48.675Z,50.80
2018-06-17T09:36:16.873Z,49.80
2018-06-17T09:38:45.107Z,49.30
2018-06-17T09:41:13.301Z,48.70
2018-06-17T09:43:41.505Z,47.60
2018-06-17T09:46:09.716Z,47.10
2018-06-17T09:48:37.929Z,46.60
2018-06-17T09:51:06.192Z,45.00
2018-06-17T09:53:34.401Z,43.30
2018-06-17T09:56:02.689Z,42.30
2018-06-17T09:58:30.987Z,41.50
2018-06-17T10:00:59.117Z,40.30
2018-06-17T10:03:27.313Z,39.80
2018-06-17T10:05:55.529Z,39.50
2018-06-17T10:08:23.738Z,37.80
2018-06-17T10:10:56.889Z,37.60
2018-06-17T10:13:26.253Z,38.00
2018-06-17T10:15:54.521Z,37.40
2018-06-17T10:18:23.441Z,34.40
2018-06-17T10:20:51.672Z,33.70
2018-06-17T10:23:19.962Z,33.80
2018-06-17T10:25:48.193Z,34.00
2018-06-17T10:28:16.777Z,34.70
2018-06-17T10:30:46.162Z,32.70
2018-06-17T10:33:14.489Z,33.40
2018-06-17T10:35:43.613Z,32.50
2018-06-17T10:38:11.864Z,30.90
2018-06-17T10:40:40.055Z,33.30
2018-06-17T10:43:13.609Z,34.70
2018-06-17T10:45:42.101Z,35.10
2018-06-17T10:48:10.537Z,35.90
2018-06-17T10:53:06.900Z,37.90
2018-06-17T10:55:35.240Z,38.60
2018-06-17T10:58:03.512Z,38.90
2018-06-17T11:00:31.723Z,39.40
2018-06-17T11:02:59.902Z,40.20
2018-06-17T11:05:28.197Z,40.00
2018-06-17T11:07:56.367Z,40.60
2018-06-17T11:10:24.575Z,40.10
2018-06-17T11:12:52.772Z,40.70
2018-06-17T11:15:20.991Z,40.80
2018-06-17T11:17:49.214Z,40.20
2018-06-17T11:20:17.427Z,39.60
2018-06-17T11:22:45.626Z,38.90
2018-06-17T11:25:13.840Z,38.30
2018-06-17T11:27:42.021Z,39.90
2018-06-17T11:30:10.210Z,39.30
2018-06-17T11:32:38.449Z,38.80
2018-06-17T11:35:06.650Z,38.30
2018-06-17T11:37:34.921Z,38.30
2018-06-17T11:40:03.158Z,38.40
2018-06-17T11:42:31.397Z,38.30
2018-06-17T11:44:59.680Z,38.00
2018-06-17T11:47:27.866Z,37.60
2018-06-17T11:49:56.126Z,37.70
2018-06-17T11:52:24.321Z,37.30
2018-06-17T11:54:52.453Z,36.60
2018-06-17T11:57:20.597Z,37.00
2018-06-17T11:59:48.794Z,37.30
2018-06-17T12:02:17.036Z,39.30
2018-06-17T12:04:45.193Z,40.00
2018-06-17T12:07:13.338Z,37.80
2018-06-17T12:09:41.539Z,38.00
2018-06-17T12:12:09.682Z,37.30
2018-06-17T12:14:37.901Z,36.70
2018-06-17T12:17:05.997Z,38.20
2018-06-17T12:19:34.168Z,37.50
2018-06-17T12:22:02.457Z,37.10
2018-06-17T12:24:30.610Z,36.90
2018-06-17T12:26:58.790Z,37.10
2018-06-17T12:29:26.942Z,36.90
2018-06-17T12:31:55.121Z,36.70
2018-06-17T12:34:23.279Z,36.20
2018-06-17T12:36:51.464Z,35.70
2018-06-17T12:39:19.605Z,36.20
2018-06-17T12:41:47.765Z,36.70
2018-06-17T12:44:16.551Z,37.00
2018-06-17T12:46:44.709Z,36.20
2018-06-17T12:49:13.004Z,36.00
2018-06-17T12:51:41.164Z,37.10
2018-06-17T12:54:09.370Z,36.10
2018-06-17T12:56:37.630Z,35.80
2018-06-17T12:59:05.812Z,36.00
2018-06-17T13:01:34.026Z,36.10
2018-06-17T13:04:02.279Z,36.10
2018-06-17T13:06:30.437Z,35.30
2018-06-17T13:08:58.641Z,35.60
2018-06-17T13:11:26.816Z,35.60
2018-06-17T13:13:54.991Z,34.70
2018-06-17T13:16:23.214Z,35.20
2018-06-17T13:18:51.415Z,35.40
2018-06-17T13:21:19.605Z,35.30
2018-06-17T13:23:47.798Z,35.30
2018-06-17T13:26:16.061Z,35.60
2018-06-17T13:28:44.252Z,36.30
2018-06-17T13:31:12.490Z,36.30
2018-06-17T13:33:40.618Z,36.80
2018-06-17T13:36:08.785Z,37.00
2018-06-17T13:38:36.962Z,37.00
2018-06-17T13:41:05.150Z,37.50
2018-06-17T13:43:33.321Z,37.10
2018-06-17T13:46:01.582Z,36.30
2018-06-17T13:48:29.782Z,36.30
2018-06-17T13:50:57.961Z,36.10
2018-06-17T13:53:26.218Z,37.30
2018-06-17T13:55:54.514Z,37.40
2018-06-17T13:58:22.705Z,36.90
2018-06-17T14:00:50.929Z,36.20
2018-06-17T14:03:19.128Z,36.20
2018-06-17T14:08:15.273Z,35.80
2018-06-17T14:10:43.490Z,36.00
2018-06-17T14:13:11.713Z,35.40
2018-06-17T14:15:39.913Z,34.70
2018-06-17T14:18:08.145Z,33.80
2018-06-17T14:20:36.341Z,34.00
2018-06-17T14:23:04.546Z,33.80
2018-06-17T14:25:32.734Z,33.10
2018-06-17T14:28:00.957Z,33.70
2018-06-17T14:30:29.158Z,34.10
2018-06-17T14:32:57.346Z,33.50
2018-06-17T14:35:25.750Z,33.50
2018-06-17T14:37:53.974Z,33.30
2018-06-17T14:40:22.189Z,32.70
2018-06-17T14:42:55.862Z,32.90
2018-06-17T14:45:29.542Z,32.60
2018-06-17T14:48:03.153Z,33.10
2018-06-17T14:50:36.790Z,33.50
2018-06-17T14:53:07.126Z,33.60
2018-06-17T14:55:35.302Z,33.60
2018-06-17T14:58:03.537Z,33.60
2018-06-17T15:00:31.794Z,34.00
2018-06-17T15:02:59.962Z,34.20
2018-06-17T15:05:28.142Z,34.30
2018-06-17T15:07:56.298Z,34.60
2018-06-17T15:10:24.493Z,34.50
2018-06-17T15:12:52.665Z,34.60
2018-06-17T15:15:20.898Z,34.80
2018-06-17T15:17:49.045Z,34.70
2018-06-17T15:20:17.267Z,34.50
2018-06-17T15:22:45.458Z,34.40
2018-06-17T15:25:13.815Z,34.90
2018-06-17T15:27:41.967Z,34.30
2018-06-17T15:30:10.134Z,33.40
2018-06-17T15:32:43.826Z,33.70
2018-06-17T15:36:20.006Z,33.90
2018-06-17T15:38:57.311Z,33.50
2018-06-17T15:41:26.677Z,33.00
2018-06-17T15:43:57.068Z,33.70
2018-06-17T15:46:25.778Z,33.50
2018-06-17T15:48:54.007Z,33.70
2018-06-17T15:51:22.154Z,33.50
2018-06-17T15:53:50.387Z,34.30
2018-06-17T15:56:18.589Z,34.70
2018-06-17T15:58:46.779Z,35.00
2018-06-17T16:01:15.268Z,35.60
2018-06-17T16:03:43.479Z,35.50
2018-06-17T16:06:11.661Z,36.10
2018-06-17T16:08:39.884Z,35.30
2018-06-17T16:11:08.115Z,35.60
2018-06-17T16:13:41.693Z,35.70
2018-06-17T16:16:15.403Z,35.60
2018-06-17T16:18:48.898Z,35.00
2018-06-17T16:21:17.207Z,34.80
2018-06-17T16:23:45.538Z,34.80
2018-06-17T16:26:13.751Z,35.20
2018-06-17T16:28:42.078Z,34.30
2018-06-17T16:31:10.293Z,34.50
2018-06-17T16:33:38.766Z,35.20
2018-06-17T16:36:06.981Z,35.70
2018-06-17T16:38:35.235Z,35.80
2018-06-17T16:41:03.462Z,35.80
2018-06-17T16:43:31.708Z,36.30
2018-06-17T16:45:59.957Z,36.90
2018-06-17T16:48:28.162Z,36.80
2018-06-17T16:52:04.559Z,36.80
2018-06-17T16:54:38.177Z,37.10
2018-06-17T16:57:11.755Z,36.80
2018-06-17T16:59:45.432Z,37.10
2018-06-17T17:02:13.631Z,36.30
2018-06-17T17:04:41.885Z,36.80
2018-06-17T17:07:10.117Z,36.90
2018-06-17T17:09:38.309Z,37.20
2018-06-17T17:12:06.567Z,37.10
2018-06-17T17:14:34.833Z,37.60
2018-06-17T17:17:03.025Z,37.60
2018-06-17T17:19:31.200Z,37.60
2018-06-17T17:21:59.458Z,37.70
2018-06-17T17:24:27.669Z,37.50
2018-06-17T17:26:55.934Z,37.80
2018-06-17T17:29:24.198Z,37.60
2018-06-17T17:31:57.886Z,37.00
2018-06-17T17:34:31.666Z,37.10
2018-06-17T17:37:06.598Z,36.70
2018-06-17T17:39:40.224Z,37.40
2018-06-17T17:42:08.471Z,37.70
2018-06-17T17:44:42.344Z,37.60
2018-06-17T17:47:16.098Z,38.10
2018-06-17T17:49:44.362Z,38.20
2018-06-17T17:52:12.627Z,38.30
2018-06-17T17:54:40.905Z,38.10
2018-06-17T17:57:09.188Z,38.50
2018-06-17T17:59:37.450Z,38.30
2018-06-17T18:02:05.973Z,38.50
2018-06-17T18:04:34.201Z,38.30
2018-06-17T18:07:02.914Z,38.60
2018-06-17T18:09:31.460Z,38.50
2018-06-17T18:12:00.001Z,38.70
2018-06-17T18:14:28.594Z,38.80
2018-06-17T18:16:57.133Z,39.10
2018-06-17T18:19:25.458Z,39.30
2018-06-17T18:21:53.685Z,39.10
2018-06-17T18:24:21.885Z,39.10
2018-06-17T18:26:55.375Z,39.10
2018-06-17T18:29:29.136Z,39.10
2018-06-17T18:32:02.830Z,39.20
2018-06-17T18:34:36.633Z,39.40
2018-06-17T18:37:05.060Z,39.20
2018-06-17T18:39:33.274Z,38.90
2018-06-17T18:42:01.489Z,38.70
2018-06-17T18:44:29.705Z,38.90
2018-06-17T18:46:57.917Z,38.70
2018-06-17T18:49:26.121Z,38.80
2018-06-17T18:51:54.351Z,38.70
2018-06-17T18:54:22.532Z,38.40
2018-06-17T18:56:51.070Z,38.70
2018-06-17T18:59:19.234Z,38.70
2018-06-17T19:01:47.517Z,39.00
2018-06-17T19:04:15.704Z,39.30
2018-06-17T19:06:43.905Z,39.40
2018-06-17T19:09:17.581Z,39.20
2018-06-17T19:11:51.238Z,38.80
2018-06-17T19:14:24.594Z,38.80
2018-06-17T19:16:58.282Z,38.70
2018-06-17T19:19:26.501Z,38.80
2018-06-17T19:21:54.920Z,38.60
2018-06-17T19:24:23.070Z,38.60
2018-06-17T19:26:51.245Z,38.40
2018-06-17T19:29:19.892Z,38.70
2018-06-17T19:31:48.325Z,38.70
2018-06-17T19:34:16.506Z,38.90
2018-06-17T19:36:44.697Z,38.90
2018-06-17T19:39:12.941Z,38.90
2018-06-17T19:41:41.121Z,39.00
2018-06-17T19:44:09.322Z,39.10
2018-06-17T19:46:37.511Z,39.30
2018-06-17T19:49:05.819Z,39.00
2018-06-17T19:51:39.730Z,39.20
2018-06-17T19:54:13.289Z,39.10
2018-06-17T19:56:46.829Z,39.10
2018-06-17T19:59:20.534Z,39.20
2018-06-17T20:01:48.736Z,39.10
2018-06-17T20:04:16.981Z,39.30
2018-06-17T20:06:45.182Z,40.20
2018-06-17T20:09:13.633Z,39.70
2018-06-17T20:11:41.874Z,39.50
2018-06-17T20:14:10.031Z,39.60
2018-06-17T20:19:06.645Z,39.40
2018-06-17T20:21:34.813Z,39.60
2018-06-17T20:24:03.110Z,39.60
2018-06-17T20:26:31.316Z,39.60
2018-06-17T20:28:59.485Z,39.60
2018-06-17T20:31:27.689Z,39.60
2018-06-17T20:34:01.230Z,39.60
2018-06-17T20:36:34.602Z,39.60
2018-06-17T20:39:08.240Z,39.60
2018-06-17T20:41:41.764Z,39.60
2018-06-17T20:44:09.921Z,39.90
2018-06-17T20:46:38.138Z,39.70
2018-06-17T20:49:06.294Z,39.80
2018-06-17T20:51:34.498Z,40.20
2018-06-17T20:54:02.782Z,40.30
2018-06-17T20:56:31.045Z,40.10
2018-06-17T20:58:59.246Z,40.50
2018-06-17T21:01:27.460Z,40.80
2018-06-17T21:03:55.664Z,41.80
2018-06-17T21:06:24.121Z,41.20
2018-06-17T21:08:52.313Z,41.40
2018-06-17T21:11:20.543Z,41.50
2018-06-17T21:13:49.177Z,41.60
2018-06-17T21:16:17.656Z,42.30
2018-06-17T21:18:51.292Z,42.00
2018-06-17T21:21:25.044Z,42.20
2018-06-17T21:23:58.580Z,42.10
2018-06-17T21:26:32.169Z,42.00
2018-06-17T21:29:00.505Z,42.30
2018-06-17T21:31:28.741Z,42.30
2018-06-17T21:33:57.117Z,42.40
2018-06-17T21:36:25.311Z,42.30
2018-06-17T21:38:53.504Z,42.50
2018-06-17T21:41:21.697Z,42.40
2018-06-17T21:43:49.925Z,42.60
2018-06-17T21:46:18.117Z,42.30
2018-06-17T21:48:46.450Z,42.50
2018-06-17T21:51:14.650Z,42.80
2018-06-17T21:53:43.358Z,42.60
2018-06-17T21:56:11.578Z,42.50
2018-06-17T21:58:47.722Z,42.70
2018-06-17T22:01:16.519Z,42.90
2018-06-17T22:03:44.981Z,43.10
2018-06-17T22:06:13.208Z,43.00
2018-06-17T22:08:46.922Z,43.40
2018-06-17T22:11:20.546Z,43.30
2018-06-17T22:13:54.126Z,43.40
2018-06-17T22:16:27.693Z,43.10
2018-06-17T22:18:55.902Z,43.10
2018-06-17T22:21:24.105Z,43.10
2018-06-17T22:23:52.298Z,43.30
2018-06-17T22:26:20.487Z,43.10
2018-06-17T22:28:49.014Z,43.20
2018-06-17T22:31:17.230Z,43.30
2018-06-17T22:33:45.430Z,43.00
2018-06-17T22:36:13.609Z,43.20
2018-06-17T22:38:41.795Z,43.30
2018-06-17T22:41:09.998Z,43.30
2018-06-17T22:43:38.173Z,43.50
2018-06-17T22:46:06.487Z,43.50
2018-06-17T22:48:34.677Z,43.10
2018-06-17T22:51:02.883Z,43.50
2018-06-17T22:53:42.439Z,43.40
2018-06-17T22:56:15.924Z,43.30
2018-06-17T22:58:49.441Z,43.70
2018-06-17T23:01:22.927Z,43.60
2018-06-17T23:03:56.600Z,43.60
2018-06-17T23:06:30.254Z,43.50
2018-06-17T23:09:03.938Z,43.60
2018-06-17T23:11:32.085Z,43.80
2018-06-17T23:14:00.213Z,44.20
2018-06-17T23:16:28.372Z,44.80
2018-06-17T23:18:56.530Z,44.90
2018-06-17T23:21:24.706Z,45.10
2018-06-17T23:23:53.038Z,45.20
2018-06-17T23:26:21.208Z,45.40
2018-06-17T23:28:49.361Z,45.80
2018-06-17T23:31:17.541Z,45.90
2018-06-17T23:33:45.698Z,46.10
2018-06-17T23:38:48.497Z,46.70
2018-06-17T23:41:16.650Z,46.80
2018-06-17T23:43:46.108Z,47.00
2018-06-17T23:46:19.677Z,47.40
2018-06-17T23:48:53.417Z,47.20
2018-06-17T23:51:27.020Z,47.40
2018-06-17T23:54:00.532Z,47.10
2018-06-17T23:58:56.637Z,47.50
